Time;durP1;ratioP1;P1;durP2;ratioP2;P2;SDS_P1;SDS_P2;PMS_P1;PMS_P2;Temp;Humidity;BMP_temperature;BMP_pressure;BME280_temperature;BME280_humidity;BME280_pressure;Samples;Min_cycle;Max_cycle;Signal;HPM_P1;HPM_P2
2021/06/26 00:01:54;;;;;;;;;;;16.60;92.70;;;;;;5015424;28;20401;-71
2021/06/26 00:04:19;;;;;;;;;;;16.60;92.60;;;;;;5016688;28;20386;-71
2021/06/26 00:06:45;;;;;;;;;;;16.60;92.50;;;;;;5016399;28;19924;-72
2021/06/26 00:09:10;;;;;;;;;;;16.60;92.70;;;;;;5017122;28;19923;-71
2021/06/26 00:11:36;;;;;;;;;;;16.70;92.70;;;;;;5015297;28;19947;-71
2021/06/26 00:14:01;;;;;;;;;;;16.60;92.80;;;;;;5015297;28;19922;-71
2021/06/26 00:16:27;;;;;;;;;;;16.60;92.70;;;;;;5014987;28;19920;-71
2021/06/26 00:18:52;;;;;;;;;;;16.60;92.80;;;;;;5016253;28;19923;-71
2021/06/26 00:21:18;;;;;;;;;;;16.70;92.90;;;;;;5016269;28;19927;-71
2021/06/26 00:23:43;;;;;;;;;;;16.70;92.60;;;;;;5016134;28;19981;-71
2021/06/26 00:26:09;;;;;;;;;;;16.70;92.90;;;;;;5015947;28;19930;-71
2021/06/26 00:28:34;;;;;;;;;;;16.70;93.10;;;;;;5016180;28;19922;-71
2021/06/26 00:31:00;;;;;;;;;;;16.60;92.80;;;;;;5015928;28;19967;-71
2021/06/26 00:33:26;;;;;;;;;;;16.60;92.70;;;;;;5016159;28;20222;-71
2021/06/26 00:35:51;;;;;;;;;;;16.60;92.80;;;;;;5014572;28;19924;-71
2021/06/26 00:38:17;;;;;;;;;;;16.60;92.80;;;;;;5015984;28;20243;-71
2021/06/26 00:40:43;;;;;;;;;;;16.60;93.10;;;;;;5016086;28;19924;-71
2021/06/26 00:43:08;;;;;;;;;;;16.60;93.10;;;;;;5015876;28;19922;-71
2021/06/26 00:45:34;;;;;;;;;;;16.60;92.80;;;;;;5024837;28;20013;-71
2021/06/26 00:47:59;;;;;;;;;;;16.70;92.80;;;;;;5035482;28;19962;-71
2021/06/26 00:50:28;;;;;;;;;;;16.60;92.90;;;;;;5035437;28;19964;-71
2021/06/26 00:52:53;;;;;;;;;;;16.60;92.60;;;;;;5034323;28;19974;-71
2021/06/26 00:55:19;;;;;;;;;;;16.60;92.50;;;;;;5035142;28;19977;-71
2021/06/26 00:57:45;;;;;;;;;;;16.50;92.70;;;;;;5034102;28;19931;-71
2021/06/26 01:00:11;;;;;;;;;;;16.50;92.90;;;;;;5035278;28;19925;-71
2021/06/26 01:02:37;;;;;;;;;;;16.50;92.80;;;;;;5034297;28;19976;-72
2021/06/26 01:05:02;;;;;;;;;;;16.50;92.90;;;;;;5035179;28;19991;-71
2021/06/26 01:07:28;;;;;;;;;;;16.50;92.90;;;;;;5035047;28;20319;-71
2021/06/26 01:09:53;;;;;;;;;;;16.60;92.80;;;;;;5033919;28;20360;-71
2021/06/26 01:12:19;;;;;;;;;;;16.60;92.80;;;;;;5032644;28;19935;-71
2021/06/26 01:14:44;;;;;;;;;;;16.50;92.80;;;;;;5035058;28;19928;-71
2021/06/26 01:17:10;;;;;;;;;;;16.50;92.70;;;;;;5034797;28;19924;-71
2021/06/26 01:19:35;;;;;;;;;;;16.50;92.70;;;;;;5033594;28;20412;-72
2021/06/26 01:22:07;;;;;;;;;;;16.50;92.70;;;;;;5034923;28;19926;-71
2021/06/26 01:24:35;;;;;;;;;;;16.50;92.90;;;;;;5033666;28;19965;-71
2021/06/26 01:27:01;;;;;;;;;;;16.40;93.30;;;;;;5033412;28;19927;-71
2021/06/26 01:29:27;;;;;;;;;;;16.40;93.20;;;;;;5034715;28;19924;-71
2021/06/26 01:31:52;;;;;;;;;;;16.50;93.10;;;;;;5033374;28;20468;-71
2021/06/26 01:34:18;;;;;;;;;;;16.40;92.90;;;;;;5034899;28;19921;-71
2021/06/26 01:36:43;;;;;;;;;;;16.40;92.90;;;;;;5033239;28;19922;-71
2021/06/26 01:39:09;;;;;;;;;;;16.40;92.90;;;;;;5034612;28;19929;-71
2021/06/26 01:41:34;;;;;;;;;;;16.30;92.90;;;;;;5033467;28;19948;-71
2021/06/26 01:44:00;;;;;;;;;;;16.30;93.10;;;;;;5033461;28;19988;-71
2021/06/26 01:46:26;;;;;;;;;;;16.40;93.00;;;;;;5016470;28;20015;-71
2021/06/26 01:48:51;;;;;;;;;;;16.40;93.20;;;;;;5014750;28;19928;-71
2021/06/26 01:51:17;;;;;;;;;;;16.40;93.00;;;;;;5014652;28;19941;-71
2021/06/26 01:53:42;;;;;;;;;;;16.40;92.90;;;;;;5014868;28;20366;-71
2021/06/26 01:56:08;;;;;;;;;;;16.40;92.80;;;;;;5014380;28;19939;-71
2021/06/26 01:58:33;;;;;;;;;;;16.40;93.00;;;;;;5014484;28;19945;-71
2021/06/26 02:00:59;;;;;;;;;;;16.30;92.90;;;;;;5013424;28;19926;-71
2021/06/26 02:03:24;;;;;;;;;;;16.20;93.00;;;;;;5014724;28;19922;-71
2021/06/26 02:05:50;;;;;;;;;;;16.20;93.00;;;;;;5014292;28;19969;-71
2021/06/26 02:08:15;;;;;;;;;;;16.20;93.00;;;;;;5014117;28;19936;-71
2021/06/26 02:10:41;;;;;;;;;;;16.20;93.00;;;;;;5013110;28;20370;-71
2021/06/26 02:13:06;;;;;;;;;;;16.20;92.90;;;;;;5013377;28;19925;-72
2021/06/26 02:15:32;;;;;;;;;;;16.20;92.90;;;;;;5014150;28;19927;-71
2021/06/26 02:17:57;;;;;;;;;;;16.20;92.90;;;;;;5014036;28;19933;-72
2021/06/26 02:20:23;;;;;;;;;;;16.20;93.00;;;;;;5013912;28;19922;-71
2021/06/26 02:22:48;;;;;;;;;;;16.20;92.90;;;;;;5012510;28;19922;-71
2021/06/26 02:25:15;;;;;;;;;;;16.10;93.00;;;;;;5012870;28;19934;-71
2021/06/26 02:27:40;;;;;;;;;;;16.10;92.90;;;;;;5013836;28;19928;-71
2021/06/26 02:30:07;;;;;;;;;;;16.10;92.80;;;;;;5012760;28;19950;-71
2021/06/26 02:32:32;;;;;;;;;;;16.10;92.80;;;;;;5012616;28;19926;-71
2021/06/26 02:34:58;;;;;;;;;;;16.10;92.70;;;;;;5012864;28;19944;-71
2021/06/26 02:37:23;;;;;;;;;;;16.10;93.00;;;;;;5013644;28;19920;-71
2021/06/26 02:39:49;;;;;;;;;;;16.20;93.20;;;;;;5013804;28;19955;-71
2021/06/26 02:42:14;;;;;;;;;;;16.20;93.10;;;;;;5012694;28;20332;-71
2021/06/26 02:44:40;;;;;;;;;;;16.20;93.10;;;;;;5014424;28;19927;-72
2021/06/26 02:47:05;;;;;;;;;;;16.20;93.00;;;;;;5033240;28;19926;-71
2021/06/26 02:49:31;;;;;;;;;;;16.20;93.00;;;;;;5033288;28;19920;-71
2021/06/26 02:51:56;;;;;;;;;;;16.10;93.00;;;;;;5033364;28;20384;-71
2021/06/26 02:54:22;;;;;;;;;;;16.10;93.10;;;;;;5033522;28;19924;-71
2021/06/26 02:56:47;;;;;;;;;;;16.00;93.00;;;;;;5032892;28;19941;-71
2021/06/26 02:59:13;;;;;;;;;;;16.00;93.10;;;;;;5033207;28;19976;-71
2021/06/26 03:01:38;;;;;;;;;;;16.00;93.40;;;;;;5033150;28;20443;-71
2021/06/26 03:04:04;;;;;;;;;;;16.00;93.30;;;;;;5033341;28;19922;-71
2021/06/26 03:06:29;;;;;;;;;;;16.00;93.20;;;;;;5031714;28;19927;-71
2021/06/26 03:08:55;;;;;;;;;;;16.00;93.00;;;;;;5032676;28;19928;-71
2021/06/26 03:11:20;;;;;;;;;;;15.90;93.00;;;;;;5032969;28;20338;-71
2021/06/26 03:13:46;;;;;;;;;;;15.90;93.30;;;;;;5033258;28;19956;-71
2021/06/26 03:16:12;;;;;;;;;;;15.90;93.30;;;;;;5032821;28;19924;-71
2021/06/26 03:18:42;;;;;;;;;;;15.90;93.30;;;;;;5032719;28;19967;-71
2021/06/26 03:21:08;;;;;;;;;;;15.90;93.10;;;;;;5032919;28;19930;-71
2021/06/26 03:23:33;;;;;;;;;;;15.90;93.20;;;;;;5032709;28;19959;-71
2021/06/26 03:25:59;;;;;;;;;;;15.90;93.10;;;;;;5032745;28;19932;-71
2021/06/26 03:28:24;;;;;;;;;;;15.90;93.00;;;;;;5032883;28;19926;-71
2021/06/26 03:30:50;;;;;;;;;;;15.90;93.10;;;;;;5032599;28;20284;-71
2021/06/26 03:33:15;;;;;;;;;;;15.80;93.00;;;;;;5031888;28;19931;-71
2021/06/26 03:35:41;;;;;;;;;;;15.80;93.10;;;;;;5031950;28;19972;-71
2021/06/26 03:38:06;;;;;;;;;;;15.90;93.20;;;;;;5032454;28;20344;-71
2021/06/26 03:40:32;;;;;;;;;;;15.90;92.90;;;;;;5031461;28;20009;-71
2021/06/26 03:42:57;;;;;;;;;;;15.90;92.90;;;;;;5032787;28;19928;-71
2021/06/26 03:45:23;;;;;;;;;;;15.90;92.90;;;;;;5024471;28;19925;-71
2021/06/26 03:47:48;;;;;;;;;;;15.80;93.00;;;;;;5011467;28;20447;-71
2021/06/26 03:50:14;;;;;;;;;;;15.80;93.00;;;;;;5012640;28;20466;-71
2021/06/26 03:52:39;;;;;;;;;;;15.70;92.80;;;;;;5012795;28;19935;-71
2021/06/26 03:55:05;;;;;;;;;;;15.80;92.80;;;;;;5011543;28;20387;-71
2021/06/26 03:57:31;;;;;;;;;;;15.70;92.90;;;;;;5012372;28;19946;-71
2021/06/26 03:59:56;;;;;;;;;;;15.80;92.80;;;;;;5012668;28;19926;-71
2021/06/26 04:02:22;;;;;;;;;;;15.70;92.90;;;;;;5012640;28;19924;-71
2021/06/26 04:04:47;;;;;;;;;;;15.70;92.90;;;;;;5012664;28;20404;-71
2021/06/26 04:07:13;;;;;;;;;;;15.60;93.00;;;;;;5012455;28;19920;-71
2021/06/26 04:09:38;;;;;;;;;;;15.60;92.90;;;;;;5012476;28;19928;-71
2021/06/26 04:12:04;;;;;;;;;;;15.60;93.00;;;;;;5011382;28;20304;-71
2021/06/26 04:14:29;;;;;;;;;;;15.60;93.10;;;;;;5012475;28;19930;-71
2021/06/26 04:16:55;;;;;;;;;;;15.50;93.10;;;;;;5012453;28;19925;-71
2021/06/26 04:19:21;;;;;;;;;;;15.50;92.90;;;;;;5012341;28;19936;-71
2021/06/26 04:21:46;;;;;;;;;;;15.50;93.10;;;;;;5012426;28;19931;-71
2021/06/26 04:24:12;;;;;;;;;;;15.40;93.00;;;;;;5012264;28;20049;-71
2021/06/26 04:26:37;;;;;;;;;;;15.40;93.00;;;;;;5012520;28;19925;-71
2021/06/26 04:29:03;;;;;;;;;;;15.50;93.10;;;;;;5012201;28;19931;-71
2021/06/26 04:31:28;;;;;;;;;;;15.40;93.10;;;;;;5011046;28;20029;-71
2021/06/26 04:33:54;;;;;;;;;;;15.40;93.20;;;;;;5012504;28;20347;-71
2021/06/26 04:36:19;;;;;;;;;;;15.40;93.20;;;;;;5012422;28;19926;-71
2021/06/26 04:38:45;;;;;;;;;;;15.40;93.50;;;;;;5012174;28;20316;-71
2021/06/26 04:41:11;;;;;;;;;;;15.40;93.20;;;;;;5012320;28;19923;-71
2021/06/26 04:43:36;;;;;;;;;;;15.40;93.10;;;;;;5012281;28;19966;-71
2021/06/26 04:46:02;;;;;;;;;;;15.40;93.10;;;;;;5026113;28;19932;-71
2021/06/26 04:48:29;;;;;;;;;;;15.40;93.00;;;;;;5035529;28;20457;-71
2021/06/26 04:50:55;;;;;;;;;;;15.40;93.40;;;;;;5035591;28;19968;-71
2021/06/26 04:53:20;;;;;;;;;;;15.40;93.20;;;;;;5034503;28;19924;-72
2021/06/26 04:55:51;;;;;;;;;;;15.40;93.10;;;;;;5035427;28;19952;-71
2021/06/26 04:58:23;;;;;;;;;;;15.40;93.00;;;;;;5035190;28;19926;-71
2021/06/26 05:00:51;;;;;;;;;;;15.50;93.10;;;;;;5035419;28;20426;-71
2021/06/26 05:03:20;;;;;;;;;;;15.40;93.20;;;;;;5035479;28;20012;-71
2021/06/26 05:05:46;;;;;;;;;;;15.40;93.20;;;;;;5035401;28;19922;-71
2021/06/26 05:08:12;;;;;;;;;;;15.50;93.10;;;;;;5035007;28;19977;-71
2021/06/26 05:10:37;;;;;;;;;;;15.40;93.00;;;;;;5033938;28;19947;-71
2021/06/26 05:13:03;;;;;;;;;;;15.40;93.10;;;;;;5035303;28;20299;-71
2021/06/26 05:15:29;;;;;;;;;;;15.40;93.00;;;;;;5035230;28;19927;-71
2021/06/26 05:17:54;;;;;;;;;;;15.40;92.90;;;;;;5034803;28;19985;-71
2021/06/26 05:20:20;;;;;;;;;;;15.40;93.00;;;;;;5033587;28;20329;-71
2021/06/26 05:22:45;;;;;;;;;;;15.40;93.00;;;;;;5035152;28;19927;-71
2021/06/26 05:25:11;;;;;;;;;;;15.40;93.10;;;;;;5033927;28;20073;-71
2021/06/26 05:27:36;;;;;;;;;;;15.40;92.90;;;;;;5034804;28;19923;-71
2021/06/26 05:30:02;;;;;;;;;;;15.40;92.90;;;;;;5033607;28;19949;-71
2021/06/26 05:32:28;;;;;;;;;;;15.50;92.90;;;;;;5035191;28;19984;-71
2021/06/26 05:34:53;;;;;;;;;;;15.50;92.80;;;;;;5033795;28;20332;-71
2021/06/26 05:37:19;;;;;;;;;;;15.50;92.80;;;;;;5034748;28;19926;-71
2021/06/26 05:39:44;;;;;;;;;;;15.50;92.70;;;;;;5033457;28;19972;-71
2021/06/26 05:42:10;;;;;;;;;;;15.60;92.80;;;;;;5034769;28;19928;-71
2021/06/26 05:44:35;;;;;;;;;;;15.60;92.70;;;;;;5032933;28;19927;-71
2021/06/26 05:47:01;;;;;;;;;;;15.60;92.90;;;;;;5014838;28;20011;-71
2021/06/26 05:49:27;;;;;;;;;;;15.50;92.80;;;;;;5013429;28;19948;-71
2021/06/26 05:51:52;;;;;;;;;;;15.50;93.10;;;;;;5014765;28;19952;-71
2021/06/26 05:54:18;;;;;;;;;;;15.50;93.10;;;;;;5014881;28;19920;-71
2021/06/26 05:56:43;;;;;;;;;;;15.50;93.10;;;;;;5014543;28;20040;-71
2021/06/26 05:59:09;;;;;;;;;;;15.60;93.00;;;;;;5013896;28;19920;-71
2021/06/26 06:01:34;;;;;;;;;;;15.60;92.80;;;;;;5014612;28;19952;-71
2021/06/26 06:04:00;;;;;;;;;;;15.60;92.80;;;;;;5014519;28;20023;-71
2021/06/26 06:06:25;;;;;;;;;;;15.60;92.70;;;;;;5014531;28;19928;-71
2021/06/26 06:08:51;;;;;;;;;;;15.50;93.10;;;;;;5014147;28;20020;-71
2021/06/26 06:11:16;;;;;;;;;;;15.50;93.20;;;;;;5014314;28;19943;-71
2021/06/26 06:13:41;;;;;;;;;;;15.50;93.20;;;;;;5014595;28;19938;-71
2021/06/26 06:16:07;;;;;;;;;;;15.50;93.10;;;;;;5014376;28;19923;-71
2021/06/26 06:18:32;;;;;;;;;;;15.40;93.40;;;;;;5014286;28;19931;-71
2021/06/26 06:20:58;;;;;;;;;;;15.50;93.20;;;;;;5013871;28;20294;-71
2021/06/26 06:23:23;;;;;;;;;;;15.40;93.50;;;;;;5014031;28;20337;-71
2021/06/26 06:25:49;;;;;;;;;;;15.40;93.50;;;;;;5012948;28;19924;-71
2021/06/26 06:28:14;;;;;;;;;;;15.40;93.70;;;;;;5012855;28;19925;-71
2021/06/26 06:30:40;;;;;;;;;;;15.40;93.70;;;;;;5013888;28;20388;-71
2021/06/26 06:33:06;;;;;;;;;;;15.40;93.90;;;;;;5013442;28;20393;-71
2021/06/26 06:35:31;;;;;;;;;;;15.40;94.10;;;;;;5013940;28;19922;-71
2021/06/26 06:37:57;;;;;;;;;;;15.40;94.00;;;;;;5013909;28;19921;-71
2021/06/26 06:40:23;;;;;;;;;;;15.40;93.60;;;;;;5012599;28;19920;-71
2021/06/26 06:42:48;;;;;;;;;;;15.30;93.70;;;;;;5013521;28;19927;-71
2021/06/26 06:45:14;;;;;;;;;;;15.30;94.20;;;;;;5018921;28;19973;-71
2021/06/26 06:47:39;;;;;;;;;;;15.30;93.90;;;;;;5031992;28;19931;-71
2021/06/26 06:50:05;;;;;;;;;;;15.30;93.80;;;;;;5032004;28;19946;-71
2021/06/26 06:52:31;;;;;;;;;;;15.30;94.30;;;;;;5033408;28;19962;-71
2021/06/26 06:54:56;;;;;;;;;;;15.30;94.50;;;;;;5033324;28;19959;-71
2021/06/26 06:57:24;;;;;;;;;;;15.20;94.60;;;;;;5033556;28;19948;-71
2021/06/26 06:59:50;;;;;;;;;;;15.20;94.90;;;;;;5033603;28;19925;-71
2021/06/26 07:02:15;;;;;;;;;;;15.20;94.40;;;;;;5031865;28;19931;-71
2021/06/26 07:04:41;;;;;;;;;;;15.30;94.10;;;;;;5033195;28;19965;-71
2021/06/26 07:07:06;;;;;;;;;;;15.40;93.90;;;;;;5031948;28;20040;-71
2021/06/26 07:09:32;;;;;;;;;;;15.50;93.60;;;;;;5032651;28;19921;-71
2021/06/26 07:11:58;;;;;;;;;;;15.60;94.00;;;;;;5032722;28;19950;-71
2021/06/26 07:14:23;;;;;;;;;;;15.60;93.60;;;;;;5031891;28;19924;-71
2021/06/26 07:16:49;;;;;;;;;;;15.70;94.00;;;;;;5031788;28;19924;-71
2021/06/26 07:19:14;;;;;;;;;;;15.70;93.80;;;;;;5032481;28;20388;-71
2021/06/26 07:21:40;;;;;;;;;;;15.80;93.90;;;;;;5032870;28;19930;-71
2021/06/26 07:24:05;;;;;;;;;;;15.80;93.80;;;;;;5032683;28;19990;-71
2021/06/26 07:26:31;;;;;;;;;;;15.70;93.80;;;;;;5033040;28;19925;-71
2021/06/26 07:28:56;;;;;;;;;;;15.70;94.00;;;;;;5032502;28;19920;-71
2021/06/26 07:31:22;;;;;;;;;;;15.70;94.00;;;;;;5032496;28;19941;-71
2021/06/26 07:33:47;;;;;;;;;;;15.80;93.80;;;;;;5032599;28;20018;-71
2021/06/26 07:36:13;;;;;;;;;;;16.00;94.00;;;;;;5032715;28;19975;-71
2021/06/26 07:38:38;;;;;;;;;;;16.10;94.00;;;;;;5032520;28;20011;-71
2021/06/26 07:41:04;;;;;;;;;;;16.10;93.60;;;;;;5031384;28;20302;-71
2021/06/26 07:43:29;;;;;;;;;;;16.20;93.60;;;;;;5032403;28;19928;-71
2021/06/26 07:45:55;;;;;;;;;;;16.20;93.70;;;;;;5020049;28;19929;-71
2021/06/26 07:48:20;;;;;;;;;;;16.10;93.80;;;;;;5012818;28;19997;-71
2021/06/26 07:50:52;;;;;;;;;;;16.00;93.70;;;;;;5012625;28;19971;-71
2021/06/26 07:53:18;;;;;;;;;;;15.90;94.10;;;;;;5012535;28;19926;-71
2021/06/26 07:55:43;;;;;;;;;;;15.90;94.20;;;;;;5012618;28;19939;-72
2021/06/26 07:58:09;;;;;;;;;;;15.90;94.50;;;;;;5011488;28;19922;-71
2021/06/26 08:00:34;;;;;;;;;;;16.00;94.10;;;;;;5012592;28;20003;-71
2021/06/26 08:02:59;;;;;;;;;;;15.90;94.40;;;;;;5012391;28;19926;-71
2021/06/26 08:05:25;;;;;;;;;;;16.00;94.30;;;;;;5012662;28;20379;-71
2021/06/26 08:07:51;;;;;;;;;;;16.00;94.20;;;;;;5012379;28;19939;-71
2021/06/26 08:10:16;;;;;;;;;;;16.00;94.40;;;;;;5012351;28;19944;-71
2021/06/26 08:12:42;;;;;;;;;;;16.10;94.40;;;;;;5010809;28;19972;-71
2021/06/26 08:15:08;;;;;;;;;;;16.10;94.40;;;;;;5011388;28;19973;-71
2021/06/26 08:17:33;;;;;;;;;;;16.10;94.50;;;;;;5012465;28;19927;-71
2021/06/26 08:19:59;;;;;;;;;;;16.10;94.10;;;;;;5012167;28;19925;-71
2021/06/26 08:22:24;;;;;;;;;;;16.10;94.10;;;;;;5015755;28;19922;-71
2021/06/26 08:24:50;;;;;;;;;;;16.20;94.10;;;;;;5016062;28;19961;-71
2021/06/26 08:27:15;;;;;;;;;;;16.20;93.90;;;;;;5016331;28;19950;-71
2021/06/26 08:29:41;;;;;;;;;;;16.30;94.00;;;;;;5014952;28;19970;-71
2021/06/26 08:32:06;;;;;;;;;;;16.30;93.90;;;;;;5014908;28;20332;-71
2021/06/26 08:34:32;;;;;;;;;;;16.30;94.10;;;;;;5016428;28;19930;-71
2021/06/26 08:36:57;;;;;;;;;;;16.30;93.80;;;;;;5016240;28;20013;-71
2021/06/26 08:39:23;;;;;;;;;;;16.30;93.90;;;;;;5015977;28;19921;-71
2021/06/26 08:41:48;;;;;;;;;;;16.40;94.00;;;;;;5016153;28;19924;-71
2021/06/26 08:44:14;;;;;;;;;;;16.30;94.00;;;;;;5015853;28;20339;-71
2021/06/26 08:46:40;;;;;;;;;;;16.40;93.90;;;;;;5032959;28;20407;-72
2021/06/26 08:49:06;;;;;;;;;;;16.40;94.10;;;;;;5034845;28;19921;-74
2021/06/26 08:51:31;;;;;;;;;;;16.50;94.00;;;;;;5034848;28;19948;-69
2021/06/26 08:53:56;;;;;;;;;;;16.50;94.00;;;;;;5035842;28;20062;-69
2021/06/26 08:56:22;;;;;;;;;;;16.50;93.90;;;;;;5036259;28;19982;-69
2021/06/26 08:58:47;;;;;;;;;;;16.50;93.80;;;;;;5037119;28;19929;-69
2021/06/26 09:01:13;;;;;;;;;;;16.60;93.90;;;;;;5037137;28;20379;-69
2021/06/26 09:03:38;;;;;;;;;;;16.60;93.80;;;;;;5037322;28;19926;-69
2021/06/26 09:06:06;;;;;;;;;;;16.60;93.90;;;;;;5037239;28;19927;-69
2021/06/26 09:08:32;;;;;;;;;;;16.60;93.80;;;;;;5035359;28;20017;-69
2021/06/26 09:10:57;;;;;;;;;;;16.70;94.00;;;;;;5036469;28;20050;-69
2021/06/26 09:13:27;;;;;;;;;;;16.60;94.00;;;;;;5035908;28;19920;-69
2021/06/26 09:16:08;;;;;;;;;;;16.60;93.90;;;;;;5036707;28;19922;-69
2021/06/26 09:18:41;;;;;;;;;;;16.60;94.10;;;;;;5036358;28;20389;-70
2021/06/26 09:21:20;;;;;;;;;;;16.60;94.10;;;;;;5035547;28;20012;-69
2021/06/26 09:23:55;;;;;;;;;;;16.60;94.10;;;;;;5035021;28;19962;-70
2021/06/26 09:26:20;;;;;;;;;;;16.60;94.10;;;;;;5035687;28;20013;-74
2021/06/26 09:28:46;;;;;;;;;;;16.60;93.90;;;;;;5036502;28;20368;-74
2021/06/26 09:31:15;;;;;;;;;;;16.50;94.60;;;;;;5033908;28;20413;-69
2021/06/26 09:33:41;;;;;;;;;;;16.40;94.50;;;;;;5034797;28;20023;-72
2021/06/26 09:36:07;;;;;;;;;;;16.40;95.10;;;;;;5034879;28;19975;-72
2021/06/26 09:38:36;;;;;;;;;;;16.40;94.80;;;;;;5035230;28;19937;-72
2021/06/26 09:41:17;;;;;;;;;;;16.40;94.50;;;;;;5035048;28;19926;-74
2021/06/26 09:43:42;;;;;;;;;;;16.50;94.50;;;;;;5035799;28;19922;-72
2021/06/26 09:46:08;;;;;;;;;;;16.60;94.40;;;;;;5022035;28;20456;-76
2021/06/26 09:48:33;;;;;;;;;;;16.70;94.40;;;;;;5016005;28;20002;-76
2021/06/26 09:50:59;;;;;;;;;;;16.80;94.10;;;;;;5031797;28;19950;-74
2021/06/26 09:53:24;;;;;;;;;;;17.00;93.80;;;;;;5015162;28;19921;-76
2021/06/26 09:55:53;;;;;;;;;;;17.00;93.40;;;;;;5014537;28;19997;-76
2021/06/26 09:58:18;;;;;;;;;;;17.10;93.50;;;;;;5014772;28;20045;-76
2021/06/26 10:00:44;;;;;;;;;;;17.30;93.70;;;;;;5015050;28;19966;-69
2021/06/26 10:03:10;;;;;;;;;;;17.60;93.20;;;;;;5015759;28;20121;-69
2021/06/26 10:05:35;;;;;;;;;;;17.70;93.00;;;;;;5015661;28;19927;-69
2021/06/26 10:08:04;;;;;;;;;;;17.80;93.10;;;;;;5014480;28;19926;-70
2021/06/26 10:10:30;;;;;;;;;;;17.60;92.90;;;;;;5014138;28;20398;-69
2021/06/26 10:12:55;;;;;;;;;;;17.60;93.20;;;;;;5014592;28;19963;-69
2021/06/26 10:15:22;;;;;;;;;;;17.60;93.10;;;;;;5014843;28;19967;-69
2021/06/26 10:17:49;;;;;;;;;;;17.60;93.00;;;;;;5015543;28;19930;-69
2021/06/26 10:20:15;;;;;;;;;;;17.60;93.20;;;;;;5015288;28;19931;-69
2021/06/26 10:22:42;;;;;;;;;;;17.70;93.10;;;;;;5015337;28;19928;-69
2021/06/26 10:25:08;;;;;;;;;;;17.70;93.30;;;;;;5013730;28;20436;-69
2021/06/26 10:27:33;;;;;;;;;;;17.70;93.30;;;;;;5015769;28;19978;-68
2021/06/26 10:30:11;;;;;;;;;;;17.70;93.20;;;;;;5015408;28;20394;-69
2021/06/26 10:32:37;;;;;;;;;;;17.70;93.00;;;;;;5014887;28;19930;-69
2021/06/26 10:35:10;;;;;;;;;;;17.70;93.00;;;;;;5013988;28;20023;-69
2021/06/26 10:37:35;;;;;;;;;;;17.70;93.00;;;;;;5015429;28;20016;-69
2021/06/26 10:40:05;;;;;;;;;;;17.80;93.30;;;;;;5015070;28;19927;-69
2021/06/26 10:42:31;;;;;;;;;;;17.80;93.30;;;;;;5015640;28;20393;-69
2021/06/26 10:44:56;;;;;;;;;;;17.90;92.90;;;;;;5017967;28;19935;-69
2021/06/26 10:47:41;;;;;;;;;;;18.00;92.90;;;;;;5034681;28;19926;-69
2021/06/26 10:50:17;;;;;;;;;;;18.10;92.90;;;;;;5033934;28;19942;-69
2021/06/26 10:52:48;;;;;;;;;;;18.20;92.60;;;;;;5034892;28;20292;-69
2021/06/26 10:55:24;;;;;;;;;;;18.30;92.70;;;;;;5034819;28;19921;-69
2021/06/26 10:57:50;;;;;;;;;;;18.30;93.00;;;;;;5034912;28;19920;-69
2021/06/26 11:00:15;;;;;;;;;;;18.40;93.00;;;;;;5035072;28;19930;-69
2021/06/26 11:02:41;;;;;;;;;;;18.40;92.70;;;;;;5034333;28;19927;-69
2021/06/26 11:05:07;;;;;;;;;;;18.50;92.70;;;;;;5033512;28;19927;-69
2021/06/26 11:07:33;;;;;;;;;;;18.50;92.60;;;;;;5034410;28;20403;-69
2021/06/26 11:10:04;;;;;;;;;;;18.50;92.90;;;;;;5033052;28;19930;-69
2021/06/26 11:12:35;;;;;;;;;;;18.50;92.70;;;;;;5034510;28;19924;-69
2021/06/26 11:15:01;;;;;;;;;;;18.40;93.00;;;;;;5034468;28;20007;-69
2021/06/26 11:17:33;;;;;;;;;;;18.50;92.90;;;;;;5033002;28;20411;-69
2021/06/26 11:19:59;;;;;;;;;;;18.40;92.80;;;;;;5032771;28;19929;-69
2021/06/26 11:22:24;;;;;;;;;;;18.40;92.80;;;;;;5034112;28;19922;-69
2021/06/26 11:24:50;;;;;;;;;;;18.40;92.90;;;;;;5033670;28;19965;-69
2021/06/26 11:27:18;;;;;;;;;;;18.30;92.80;;;;;;5034000;28;19967;-69
2021/06/26 11:29:45;;;;;;;;;;;18.30;93.00;;;;;;5034715;28;19980;-69
2021/06/26 11:32:20;;;;;;;;;;;18.20;93.00;;;;;;5033686;28;19936;-69
2021/06/26 11:35:05;;;;;;;;;;;18.30;92.80;;;;;;5034503;28;19942;-70
2021/06/26 11:37:35;;;;;;;;;;;18.30;92.70;;;;;;5033759;28;20426;-69
2021/06/26 11:40:15;;;;;;;;;;;18.40;92.90;;;;;;5032886;28;19928;-69
2021/06/26 11:42:53;;;;;;;;;;;18.40;92.60;;;;;;5032571;28;19926;-69
2021/06/26 11:45:19;;;;;;;;;;;18.60;92.50;;;;;;5026568;28;19927;-69
2021/06/26 11:47:45;;;;;;;;;;;18.90;92.00;;;;;;5014269;28;19922;-69
2021/06/26 11:50:17;;;;;;;;;;;19.00;91.80;;;;;;5013904;28;20032;-69
2021/06/26 11:52:42;;;;;;;;;;;19.10;91.00;;;;;;5013889;28;20008;-69
2021/06/26 11:55:08;;;;;;;;;;;19.10;91.70;;;;;;5012678;28;19966;-69
2021/06/26 11:57:33;;;;;;;;;;;19.10;91.70;;;;;;5012320;28;19940;-69
2021/06/26 11:59:59;;;;;;;;;;;19.10;91.40;;;;;;5014314;28;19961;-69
2021/06/26 12:02:32;;;;;;;;;;;19.20;91.70;;;;;;5012986;28;19925;-69
2021/06/26 12:04:58;;;;;;;;;;;19.20;91.50;;;;;;5012821;28;19924;-69
2021/06/26 12:07:37;;;;;;;;;;;19.00;91.30;;;;;;5013790;28;19921;-69
2021/06/26 12:10:06;;;;;;;;;;;18.80;91.50;;;;;;5014166;28;19924;-69
2021/06/26 12:12:38;;;;;;;;;;;18.60;92.20;;;;;;5013910;28;19950;-70
2021/06/26 12:15:04;;;;;;;;;;;18.40;92.50;;;;;;5012732;28;20413;-69
2021/06/26 12:17:30;;;;;;;;;;;18.20;92.80;;;;;;5012403;28;20565;-69
2021/06/26 12:19:59;;;;;;;;;;;18.10;93.10;;;;;;5012224;28;19930;-70
2021/06/26 12:22:25;;;;;;;;;;;18.10;93.30;;;;;;5013525;28;19923;-70
2021/06/26 12:24:50;;;;;;;;;;;18.10;93.00;;;;;;5013143;28;20340;-69
2021/06/26 12:27:24;;;;;;;;;;;18.20;92.90;;;;;;5013787;28;19922;-69
2021/06/26 12:29:57;;;;;;;;;;;18.20;92.70;;;;;;5012132;28;19940;-69
2021/06/26 12:32:32;;;;;;;;;;;18.20;92.80;;;;;;5012623;28;19981;-70
2021/06/26 12:34:58;;;;;;;;;;;18.20;92.70;;;;;;5012662;28;19951;-69
2021/06/26 12:37:27;;;;;;;;;;;18.10;92.90;;;;;;5013446;28;19971;-69
2021/06/26 12:40:00;;;;;;;;;;;18.10;93.00;;;;;;5012523;28;20012;-69
2021/06/26 12:42:25;;;;;;;;;;;18.00;93.20;;;;;;5013364;28;20025;-70
2021/06/26 12:44:54;;;;;;;;;;;18.00;93.20;;;;;;5017024;28;19958;-69
2021/06/26 12:47:20;;;;;;;;;;;17.90;93.40;;;;;;5032016;28;19922;-69
2021/06/26 12:49:48;;;;;;;;;;;17.90;93.20;;;;;;5033047;28;19961;-69
2021/06/26 12:52:14;;;;;;;;;;;17.80;93.30;;;;;;5032134;28;19927;-69
2021/06/26 12:54:49;;;;;;;;;;;17.80;93.30;;;;;;5031756;28;19946;-69
2021/06/26 12:57:15;;;;;;;;;;;17.80;93.40;;;;;;5031877;28;20299;-69
2021/06/26 12:59:40;;;;;;;;;;;17.80;93.40;;;;;;5032970;28;19927;-69
2021/06/26 13:02:06;;;;;;;;;;;17.80;93.40;;;;;;5031767;28;19987;-69
2021/06/26 13:04:34;;;;;;;;;;;17.90;93.20;;;;;;5033417;28;19931;-69
2021/06/26 13:07:00;;;;;;;;;;;17.90;93.20;;;;;;5033627;28;19964;-69
2021/06/26 13:09:46;;;;;;;;;;;17.90;93.10;;;;;;5036401;28;19927;-69
2021/06/26 13:12:22;;;;;;;;;;;18.10;93.20;;;;;;5036912;28;20041;-69
2021/06/26 13:14:55;;;;;;;;;;;18.10;93.00;;;;;;5036701;28;20467;-69
2021/06/26 13:17:20;;;;;;;;;;;18.20;92.90;;;;;;5036314;28;19979;-69
2021/06/26 13:19:48;;;;;;;;;;;18.20;92.90;;;;;;5036273;28;19967;-69
2021/06/26 13:22:14;;;;;;;;;;;18.20;92.80;;;;;;5035052;28;20011;-69
2021/06/26 13:24:40;;;;;;;;;;;18.10;92.90;;;;;;5034976;28;19959;-69
2021/06/26 13:27:05;;;;;;;;;;;18.00;93.20;;;;;;5036212;28;19928;-69
2021/06/26 13:29:31;;;;;;;;;;;18.00;93.10;;;;;;5036715;28;19922;-69
2021/06/26 13:31:57;;;;;;;;;;;18.00;93.00;;;;;;5035898;28;20040;-69
2021/06/26 13:34:22;;;;;;;;;;;18.00;93.00;;;;;;5036282;28;19931;-69
2021/06/26 13:36:47;;;;;;;;;;;18.10;93.10;;;;;;5034802;28;19993;-69
2021/06/26 13:39:13;;;;;;;;;;;18.00;93.10;;;;;;5036210;28;20501;-69
2021/06/26 13:41:38;;;;;;;;;;;17.90;93.50;;;;;;5035934;28;19922;-69
2021/06/26 13:44:04;;;;;;;;;;;17.90;93.70;;;;;;5034598;28;19927;-68
2021/06/26 13:46:29;;;;;;;;;;;17.80;93.80;;;;;;5018412;28;19939;-68
2021/06/26 13:48:55;;;;;;;;;;;17.70;93.60;;;;;;5016198;28;20296;-69
2021/06/26 13:51:22;;;;;;;;;;;17.80;93.50;;;;;;5031689;28;19946;-69
2021/06/26 13:53:48;;;;;;;;;;;17.80;93.50;;;;;;5015767;28;19927;-69
2021/06/26 13:56:13;;;;;;;;;;;17.80;93.40;;;;;;5015588;28;19948;-69
2021/06/26 13:58:39;;;;;;;;;;;17.80;93.50;;;;;;5016008;28;19926;-69
2021/06/26 14:01:04;;;;;;;;;;;17.80;93.60;;;;;;5015950;28;19950;-69
2021/06/26 14:03:30;;;;;;;;;;;17.80;93.60;;;;;;5015693;28;19935;-69
2021/06/26 14:05:55;;;;;;;;;;;17.80;94.10;;;;;;5015072;28;20369;-69
2021/06/26 14:08:21;;;;;;;;;;;17.80;93.70;;;;;;5015284;28;19927;-70
2021/06/26 14:10:51;;;;;;;;;;;17.90;93.50;;;;;;5015456;28;19944;-69
2021/06/26 14:13:16;;;;;;;;;;;18.00;93.50;;;;;;5015779;28;20269;-69